sensor_id;sensor_type;location;lat;lon;timestamp;P1;durP1;ratioP1;P2;durP2;ratioP2
12214;SDS011;6170;42.206;24.142;2022-12-05T00:01:49;59.22;;;33.47;;
12214;SDS011;6170;42.206;24.142;2022-12-05T00:04:16;59.50;;;31.70;;
12214;SDS011;6170;42.206;24.142;2022-12-05T00:06:44;63.97;;;32.92;;
12214;SDS011;6170;42.206;24.142;2022-12-05T00:09:11;58.65;;;31.77;;
12214;SDS011;6170;42.206;24.142;2022-12-05T00:11:40;61.40;;;33.33;;
12214;SDS011;6170;42.206;24.142;2022-12-05T00:14:09;59.15;;;32.67;;
12214;SDS011;6170;42.206;24.142;2022-12-05T00:16:37;61.60;;;32.25;;
12214;SDS011;6170;42.206;24.142;2022-12-05T00:19:08;66.28;;;33.92;;
12214;SDS011;6170;42.206;24.142;2022-12-05T00:21:37;69.78;;;34.47;;
12214;SDS011;6170;42.206;24.142;2022-12-05T00:24:05;66.55;;;32.45;;
12214;SDS011;6170;42.206;24.142;2022-12-05T00:26:35;61.20;;;31.05;;
12214;SDS011;6170;42.206;24.142;2022-12-05T00:29:02;50.40;;;30.13;;
12214;SDS011;6170;42.206;24.142;2022-12-05T00:31:29;53.03;;;27.25;;
12214;SDS011;6170;42.206;24.142;2022-12-05T00:33:58;54.70;;;24.10;;
12214;SDS011;6170;42.206;24.142;2022-12-05T00:36:28;41.92;;;23.77;;
12214;SDS011;6170;42.206;24.142;2022-12-05T00:38:57;50.25;;;22.98;;
12214;SDS011;6170;42.206;24.142;2022-12-05T00:41:26;51.10;;;26.58;;
12214;SDS011;6170;42.206;24.142;2022-12-05T00:43:54;47.28;;;24.48;;
12214;SDS011;6170;42.206;24.142;2022-12-05T00:46:24;51.42;;;26.00;;
12214;SDS011;6170;42.206;24.142;2022-12-05T00:48:54;48.55;;;27.67;;
12214;SDS011;6170;42.206;24.142;2022-12-05T00:51:22;48.05;;;25.08;;
12214;SDS011;6170;42.206;24.142;2022-12-05T00:53:54;50.85;;;25.77;;
12214;SDS011;6170;42.206;24.142;2022-12-05T00:56:23;47.63;;;25.05;;
12214;SDS011;6170;42.206;24.142;2022-12-05T00:58:52;52.05;;;26.25;;
12214;SDS011;6170;42.206;24.142;2022-12-05T01:01:21;44.55;;;25.30;;
12214;SDS011;6170;42.206;24.142;2022-12-05T01:03:50;43.45;;;23.73;;
12214;SDS011;6170;42.206;24.142;2022-12-05T01:06:18;41.47;;;22.88;;
12214;SDS011;6170;42.206;24.142;2022-12-05T01:08:46;48.45;;;25.92;;
12214;SDS011;6170;42.206;24.142;2022-12-05T01:11:16;49.03;;;24.42;;
12214;SDS011;6170;42.206;24.142;2022-12-05T01:13:44;44.17;;;22.85;;
12214;SDS011;6170;42.206;24.142;2022-12-05T01:16:12;45.60;;;24.23;;
12214;SDS011;6170;42.206;24.142;2022-12-05T01:18:41;49.92;;;26.05;;
12214;SDS011;6170;42.206;24.142;2022-12-05T01:21:08;58.72;;;25.88;;
12214;SDS011;6170;42.206;24.142;2022-12-05T01:23:36;47.83;;;25.85;;
12214;SDS011;6170;42.206;24.142;2022-12-05T01:26:04;50.13;;;26.80;;
12214;SDS011;6170;42.206;24.142;2022-12-05T01:28:34;49.65;;;26.42;;
12214;SDS011;6170;42.206;24.142;2022-12-05T01:31:03;50.20;;;26.30;;
12214;SDS011;6170;42.206;24.142;2022-12-05T01:33:32;48.08;;;26.13;;
12214;SDS011;6170;42.206;24.142;2022-12-05T01:36:00;59.70;;;27.13;;
12214;SDS011;6170;42.206;24.142;2022-12-05T01:38:28;53.33;;;26.25;;
12214;SDS011;6170;42.206;24.142;2022-12-05T01:40:59;60.75;;;27.77;;
12214;SDS011;6170;42.206;24.142;2022-12-05T01:43:27;57.42;;;27.25;;
12214;SDS011;6170;42.206;24.142;2022-12-05T01:45:55;53.63;;;27.02;;
12214;SDS011;6170;42.206;24.142;2022-12-05T01:48:23;63.45;;;27.30;;
12214;SDS011;6170;42.206;24.142;2022-12-05T01:50:53;51.40;;;25.17;;
12214;SDS011;6170;42.206;24.142;2022-12-05T01:53:20;51.85;;;24.25;;
12214;SDS011;6170;42.206;24.142;2022-12-05T01:55:49;53.55;;;24.88;;
12214;SDS011;6170;42.206;24.142;2022-12-05T01:58:16;55.67;;;24.67;;
12214;SDS011;6170;42.206;24.142;2022-12-05T02:00:45;46.20;;;22.90;;
12214;SDS011;6170;42.206;24.142;2022-12-05T02:03:16;57.55;;;24.35;;
12214;SDS011;6170;42.206;24.142;2022-12-05T02:05:45;51.38;;;24.60;;
12214;SDS011;6170;42.206;24.142;2022-12-05T02:08:14;47.30;;;22.92;;
12214;SDS011;6170;42.206;24.142;2022-12-05T02:10:43;51.72;;;24.15;;
12214;SDS011;6170;42.206;24.142;2022-12-05T02:13:22;56.03;;;24.38;;
12214;SDS011;6170;42.206;24.142;2022-12-05T02:16:13;49.40;;;23.95;;
12214;SDS011;6170;42.206;24.142;2022-12-05T02:18:52;51.55;;;24.48;;
12214;SDS011;6170;42.206;24.142;2022-12-05T02:21:36;55.47;;;24.27;;
12214;SDS011;6170;42.206;24.142;2022-12-05T02:24:21;50.22;;;24.67;;
12214;SDS011;6170;42.206;24.142;2022-12-05T02:27:08;46.38;;;23.35;;
12214;SDS011;6170;42.206;24.142;2022-12-05T02:32:45;54.83;;;24.48;;
12214;SDS011;6170;42.206;24.142;2022-12-05T02:35:20;45.30;;;23.63;;
12214;SDS011;6170;42.206;24.142;2022-12-05T02:37:58;49.78;;;22.88;;
12214;SDS011;6170;42.206;24.142;2022-12-05T02:40:35;53.30;;;25.35;;
12214;SDS011;6170;42.206;24.142;2022-12-05T02:43:09;50.72;;;24.75;;
12214;SDS011;6170;42.206;24.142;2022-12-05T02:45:44;53.58;;;25.42;;
12214;SDS011;6170;42.206;24.142;2022-12-05T02:48:15;54.33;;;25.45;;
12214;SDS011;6170;42.206;24.142;2022-12-05T02:50:43;55.42;;;26.02;;
12214;SDS011;6170;42.206;24.142;2022-12-05T02:53:14;47.50;;;24.27;;
12214;SDS011;6170;42.206;24.142;2022-12-05T02:55:43;53.20;;;24.80;;
12214;SDS011;6170;42.206;24.142;2022-12-05T02:58:13;50.72;;;24.85;;
12214;SDS011;6170;42.206;24.142;2022-12-05T03:00:46;56.25;;;25.48;;
12214;SDS011;6170;42.206;24.142;2022-12-05T03:03:15;56.13;;;24.83;;
12214;SDS011;6170;42.206;24.142;2022-12-05T03:05:46;52.25;;;26.40;;
12214;SDS011;6170;42.206;24.142;2022-12-05T03:08:18;48.28;;;23.83;;
12214;SDS011;6170;42.206;24.142;2022-12-05T03:10:49;44.70;;;23.05;;
12214;SDS011;6170;42.206;24.142;2022-12-05T03:13:19;39.70;;;21.95;;
12214;SDS011;6170;42.206;24.142;2022-12-05T03:15:52;52.45;;;23.80;;
12214;SDS011;6170;42.206;24.142;2022-12-05T03:18:24;59.25;;;23.63;;
12214;SDS011;6170;42.206;24.142;2022-12-05T03:20:56;46.15;;;21.17;;
12214;SDS011;6170;42.206;24.142;2022-12-05T03:23:28;47.33;;;21.42;;
12214;SDS011;6170;42.206;24.142;2022-12-05T03:26:01;44.45;;;22.00;;
12214;SDS011;6170;42.206;24.142;2022-12-05T03:28:38;42.70;;;20.95;;
12214;SDS011;6170;42.206;24.142;2022-12-05T03:31:18;39.33;;;20.75;;
12214;SDS011;6170;42.206;24.142;2022-12-05T03:33:51;45.40;;;21.90;;
12214;SDS011;6170;42.206;24.142;2022-12-05T03:38:55;48.95;;;21.60;;
12214;SDS011;6170;42.206;24.142;2022-12-05T03:41:31;47.38;;;20.65;;
12214;SDS011;6170;42.206;24.142;2022-12-05T03:44:04;53.95;;;23.35;;
12214;SDS011;6170;42.206;24.142;2022-12-05T03:46:37;45.78;;;21.90;;
12214;SDS011;6170;42.206;24.142;2022-12-05T03:49:10;58.50;;;24.85;;
12214;SDS011;6170;42.206;24.142;2022-12-05T03:51:41;55.97;;;24.65;;
12214;SDS011;6170;42.206;24.142;2022-12-05T03:54:13;51.78;;;22.90;;
12214;SDS011;6170;42.206;24.142;2022-12-05T03:56:46;53.40;;;21.27;;
12214;SDS011;6170;42.206;24.142;2022-12-05T03:59:21;56.35;;;20.92;;
12214;SDS011;6170;42.206;24.142;2022-12-05T04:01:57;48.08;;;22.02;;
12214;SDS011;6170;42.206;24.142;2022-12-05T04:04:30;49.33;;;19.77;;
12214;SDS011;6170;42.206;24.142;2022-12-05T04:07:01;49.00;;;22.20;;
12214;SDS011;6170;42.206;24.142;2022-12-05T04:09:32;48.58;;;19.52;;
12214;SDS011;6170;42.206;24.142;2022-12-05T04:12:06;44.72;;;20.73;;
12214;SDS011;6170;42.206;24.142;2022-12-05T04:14:37;44.53;;;21.40;;
12214;SDS011;6170;42.206;24.142;2022-12-05T04:17:08;48.75;;;21.73;;
12214;SDS011;6170;42.206;24.142;2022-12-05T04:19:38;61.60;;;21.13;;
12214;SDS011;6170;42.206;24.142;2022-12-05T04:22:26;48.22;;;22.60;;
12214;SDS011;6170;42.206;24.142;2022-12-05T04:24:54;42.33;;;18.33;;
12214;SDS011;6170;42.206;24.142;2022-12-05T04:27:40;38.17;;;18.60;;
12214;SDS011;6170;42.206;24.142;2022-12-05T04:30:15;49.35;;;20.58;;
12214;SDS011;6170;42.206;24.142;2022-12-05T04:32:45;58.70;;;17.40;;
12214;SDS011;6170;42.206;24.142;2022-12-05T04:35:18;42.90;;;19.90;;
12214;SDS011;6170;42.206;24.142;2022-12-05T04:37:50;42.58;;;20.25;;
12214;SDS011;6170;42.206;24.142;2022-12-05T04:40:21;44.92;;;21.40;;
12214;SDS011;6170;42.206;24.142;2022-12-05T04:45:21;46.47;;;21.63;;
12214;SDS011;6170;42.206;24.142;2022-12-05T04:47:54;46.22;;;21.42;;
12214;SDS011;6170;42.206;24.142;2022-12-05T04:50:25;54.28;;;21.08;;
12214;SDS011;6170;42.206;24.142;2022-12-05T04:52:57;50.65;;;20.48;;
12214;SDS011;6170;42.206;24.142;2022-12-05T04:55:26;47.20;;;22.27;;
12214;SDS011;6170;42.206;24.142;2022-12-05T04:57:58;54.40;;;23.27;;
12214;SDS011;6170;42.206;24.142;2022-12-05T05:00:32;51.17;;;24.88;;
12214;SDS011;6170;42.206;24.142;2022-12-05T05:03:05;64.38;;;24.15;;
12214;SDS011;6170;42.206;24.142;2022-12-05T05:05:36;52.58;;;23.80;;
12214;SDS011;6170;42.206;24.142;2022-12-05T05:08:04;57.45;;;23.52;;
12214;SDS011;6170;42.206;24.142;2022-12-05T05:10:44;48.53;;;24.23;;
12214;SDS011;6170;42.206;24.142;2022-12-05T05:13:17;63.65;;;26.05;;
12214;SDS011;6170;42.206;24.142;2022-12-05T05:15:44;54.70;;;24.70;;
12214;SDS011;6170;42.206;24.142;2022-12-05T05:18:12;59.25;;;25.33;;
12214;SDS011;6170;42.206;24.142;2022-12-05T05:20:39;59.28;;;25.55;;
12214;SDS011;6170;42.206;24.142;2022-12-05T05:23:06;53.30;;;25.20;;
12214;SDS011;6170;42.206;24.142;2022-12-05T05:25:33;64.50;;;26.00;;
12214;SDS011;6170;42.206;24.142;2022-12-05T05:28:00;56.67;;;27.23;;
12214;SDS011;6170;42.206;24.142;2022-12-05T05:30:27;53.75;;;25.10;;
12214;SDS011;6170;42.206;24.142;2022-12-05T05:32:54;59.47;;;28.58;;
12214;SDS011;6170;42.206;24.142;2022-12-05T05:35:22;57.85;;;26.63;;
12214;SDS011;6170;42.206;24.142;2022-12-05T05:37:49;61.40;;;24.77;;
12214;SDS011;6170;42.206;24.142;2022-12-05T05:40:16;66.22;;;25.83;;
12214;SDS011;6170;42.206;24.142;2022-12-05T05:42:44;57.60;;;25.08;;
12214;SDS011;6170;42.206;24.142;2022-12-05T05:45:12;63.20;;;25.52;;
12214;SDS011;6170;42.206;24.142;2022-12-05T05:47:40;60.17;;;25.90;;
12214;SDS011;6170;42.206;24.142;2022-12-05T05:50:08;60.58;;;25.13;;
12214;SDS011;6170;42.206;24.142;2022-12-05T05:52:37;60.60;;;26.05;;
12214;SDS011;6170;42.206;24.142;2022-12-05T05:55:04;80.85;;;27.38;;
12214;SDS011;6170;42.206;24.142;2022-12-05T05:57:33;71.45;;;28.23;;
12214;SDS011;6170;42.206;24.142;2022-12-05T06:00:00;54.70;;;27.40;;
12214;SDS011;6170;42.206;24.142;2022-12-05T06:02:30;61.42;;;28.52;;
12214;SDS011;6170;42.206;24.142;2022-12-05T06:04:58;67.13;;;26.73;;
12214;SDS011;6170;42.206;24.142;2022-12-05T06:07:25;62.80;;;27.58;;
12214;SDS011;6170;42.206;24.142;2022-12-05T06:09:54;61.20;;;27.70;;
12214;SDS011;6170;42.206;24.142;2022-12-05T06:12:21;63.88;;;26.00;;
12214;SDS011;6170;42.206;24.142;2022-12-05T06:14:48;72.65;;;28.40;;
12214;SDS011;6170;42.206;24.142;2022-12-05T06:17:16;67.95;;;27.95;;
12214;SDS011;6170;42.206;24.142;2022-12-05T06:19:43;55.08;;;28.10;;
12214;SDS011;6170;42.206;24.142;2022-12-05T06:22:10;57.80;;;25.88;;
12214;SDS011;6170;42.206;24.142;2022-12-05T06:24:37;62.47;;;30.48;;
12214;SDS011;6170;42.206;24.142;2022-12-05T06:27:05;70.53;;;32.08;;
12214;SDS011;6170;42.206;24.142;2022-12-05T06:29:32;75.88;;;33.08;;
12214;SDS011;6170;42.206;24.142;2022-12-05T06:32:00;71.80;;;33.60;;
12214;SDS011;6170;42.206;24.142;2022-12-05T06:34:27;97.47;;;39.50;;
12214;SDS011;6170;42.206;24.142;2022-12-05T06:36:56;98.93;;;41.22;;
12214;SDS011;6170;42.206;24.142;2022-12-05T06:39:23;85.15;;;35.33;;
12214;SDS011;6170;42.206;24.142;2022-12-05T06:41:50;82.75;;;36.25;;
12214;SDS011;6170;42.206;24.142;2022-12-05T06:44:19;73.07;;;33.50;;
12214;SDS011;6170;42.206;24.142;2022-12-05T06:46:46;69.72;;;33.42;;
12214;SDS011;6170;42.206;24.142;2022-12-05T06:49:13;76.65;;;33.05;;
12214;SDS011;6170;42.206;24.142;2022-12-05T06:51:40;82.57;;;33.05;;
12214;SDS011;6170;42.206;24.142;2022-12-05T06:54:07;78.35;;;32.38;;
12214;SDS011;6170;42.206;24.142;2022-12-05T06:56:34;83.30;;;32.58;;
12214;SDS011;6170;42.206;24.142;2022-12-05T06:59:01;73.60;;;30.58;;
12214;SDS011;6170;42.206;24.142;2022-12-05T07:01:29;62.58;;;30.02;;
12214;SDS011;6170;42.206;24.142;2022-12-05T07:04:05;82.72;;;32.75;;
12214;SDS011;6170;42.206;24.142;2022-12-05T07:06:35;48.88;;;25.58;;
12214;SDS011;6170;42.206;24.142;2022-12-05T07:09:02;51.10;;;23.17;;
12214;SDS011;6170;42.206;24.142;2022-12-05T07:11:29;50.47;;;22.58;;
12214;SDS011;6170;42.206;24.142;2022-12-05T07:13:56;54.67;;;22.02;;
12214;SDS011;6170;42.206;24.142;2022-12-05T07:16:23;61.72;;;22.20;;
12214;SDS011;6170;42.206;24.142;2022-12-05T07:18:52;54.22;;;22.80;;
12214;SDS011;6170;42.206;24.142;2022-12-05T07:21:19;70.55;;;28.73;;
12214;SDS011;6170;42.206;24.142;2022-12-05T07:23:46;45.38;;;21.15;;
12214;SDS011;6170;42.206;24.142;2022-12-05T07:26:16;45.97;;;19.60;;
12214;SDS011;6170;42.206;24.142;2022-12-05T07:28:44;42.40;;;20.23;;
12214;SDS011;6170;42.206;24.142;2022-12-05T07:31:12;49.70;;;19.77;;
12214;SDS011;6170;42.206;24.142;2022-12-05T07:33:40;48.72;;;19.90;;
12214;SDS011;6170;42.206;24.142;2022-12-05T07:36:10;43.05;;;19.38;;
12214;SDS011;6170;42.206;24.142;2022-12-05T07:38:38;39.00;;;17.63;;
12214;SDS011;6170;42.206;24.142;2022-12-05T07:41:05;35.05;;;17.35;;
12214;SDS011;6170;42.206;24.142;2022-12-05T07:43:32;38.05;;;19.20;;
12214;SDS011;6170;42.206;24.142;2022-12-05T07:46:00;36.15;;;18.08;;
12214;SDS011;6170;42.206;24.142;2022-12-05T07:48:28;45.35;;;18.52;;
12214;SDS011;6170;42.206;24.142;2022-12-05T07:50:57;41.72;;;19.05;;
12214;SDS011;6170;42.206;24.142;2022-12-05T07:53:27;47.20;;;19.17;;
12214;SDS011;6170;42.206;24.142;2022-12-05T07:55:54;48.45;;;21.92;;
12214;SDS011;6170;42.206;24.142;2022-12-05T07:58:21;56.63;;;24.58;;
12214;SDS011;6170;42.206;24.142;2022-12-05T08:00:48;55.00;;;25.15;;
12214;SDS011;6170;42.206;24.142;2022-12-05T08:03:15;48.05;;;22.55;;
12214;SDS011;6170;42.206;24.142;2022-12-05T08:05:42;49.30;;;21.20;;
12214;SDS011;6170;42.206;24.142;2022-12-05T08:08:09;51.28;;;22.02;;
12214;SDS011;6170;42.206;24.142;2022-12-05T08:10:37;42.45;;;21.08;;
12214;SDS011;6170;42.206;24.142;2022-12-05T08:13:04;60.28;;;22.70;;
12214;SDS011;6170;42.206;24.142;2022-12-05T08:15:32;61.75;;;22.38;;
12214;SDS011;6170;42.206;24.142;2022-12-05T08:18:00;52.97;;;24.35;;
12214;SDS011;6170;42.206;24.142;2022-12-05T08:20:27;51.15;;;23.58;;
12214;SDS011;6170;42.206;24.142;2022-12-05T08:22:54;49.92;;;24.33;;
12214;SDS011;6170;42.206;24.142;2022-12-05T08:25:21;55.63;;;24.38;;
12214;SDS011;6170;42.206;24.142;2022-12-05T08:27:49;50.53;;;23.45;;
12214;SDS011;6170;42.206;24.142;2022-12-05T08:30:16;55.58;;;24.80;;
12214;SDS011;6170;42.206;24.142;2022-12-05T08:32:43;61.95;;;24.90;;
12214;SDS011;6170;42.206;24.142;2022-12-05T08:35:11;52.08;;;24.27;;
12214;SDS011;6170;42.206;24.142;2022-12-05T08:37:38;53.35;;;24.30;;
12214;SDS011;6170;42.206;24.142;2022-12-05T08:40:05;48.53;;;24.50;;
12214;SDS011;6170;42.206;24.142;2022-12-05T08:42:32;52.58;;;23.50;;
12214;SDS011;6170;42.206;24.142;2022-12-05T08:45:01;47.60;;;23.15;;
12214;SDS011;6170;42.206;24.142;2022-12-05T08:47:28;48.97;;;23.40;;
12214;SDS011;6170;42.206;24.142;2022-12-05T08:49:55;46.90;;;24.45;;
12214;SDS011;6170;42.206;24.142;2022-12-05T08:52:22;47.92;;;23.60;;
12214;SDS011;6170;42.206;24.142;2022-12-05T08:54:49;43.60;;;21.92;;
12214;SDS011;6170;42.206;24.142;2022-12-05T08:57:16;50.72;;;23.00;;
12214;SDS011;6170;42.206;24.142;2022-12-05T08:59:43;40.83;;;22.33;;
12214;SDS011;6170;42.206;24.142;2022-12-05T09:02:11;51.90;;;24.15;;
12214;SDS011;6170;42.206;24.142;2022-12-05T09:04:38;58.17;;;26.77;;
12214;SDS011;6170;42.206;24.142;2022-12-05T09:07:05;57.00;;;26.25;;
12214;SDS011;6170;42.206;24.142;2022-12-05T09:09:32;57.78;;;26.95;;
12214;SDS011;6170;42.206;24.142;2022-12-05T09:11:59;72.60;;;27.58;;
12214;SDS011;6170;42.206;24.142;2022-12-05T09:14:26;61.67;;;27.98;;
12214;SDS011;6170;42.206;24.142;2022-12-05T09:16:57;61.13;;;29.40;;
12214;SDS011;6170;42.206;24.142;2022-12-05T09:19:27;66.90;;;30.05;;
12214;SDS011;6170;42.206;24.142;2022-12-05T09:21:54;61.05;;;27.83;;
12214;SDS011;6170;42.206;24.142;2022-12-05T09:24:22;66.00;;;30.70;;
12214;SDS011;6170;42.206;24.142;2022-12-05T09:26:49;55.10;;;27.45;;
12214;SDS011;6170;42.206;24.142;2022-12-05T09:29:17;52.33;;;25.25;;
12214;SDS011;6170;42.206;24.142;2022-12-05T09:31:44;95.85;;;42.13;;
12214;SDS011;6170;42.206;24.142;2022-12-05T09:34:14;68.15;;;30.92;;
12214;SDS011;6170;42.206;24.142;2022-12-05T09:36:43;71.90;;;32.33;;
12214;SDS011;6170;42.206;24.142;2022-12-05T09:39:10;66.68;;;31.98;;
12214;SDS011;6170;42.206;24.142;2022-12-05T09:44:43;66.97;;;34.55;;
12214;SDS011;6170;42.206;24.142;2022-12-05T09:47:22;61.25;;;29.38;;
12214;SDS011;6170;42.206;24.142;2022-12-05T09:49:59;66.03;;;33.63;;
12214;SDS011;6170;42.206;24.142;2022-12-05T09:52:31;57.50;;;28.40;;
12214;SDS011;6170;42.206;24.142;2022-12-05T09:55:02;57.83;;;27.33;;
12214;SDS011;6170;42.206;24.142;2022-12-05T09:57:33;62.35;;;28.65;;
12214;SDS011;6170;42.206;24.142;2022-12-05T10:00:04;51.35;;;27.42;;
12214;SDS011;6170;42.206;24.142;2022-12-05T10:02:35;45.78;;;22.52;;
12214;SDS011;6170;42.206;24.142;2022-12-05T10:05:10;41.88;;;23.58;;
12214;SDS011;6170;42.206;24.142;2022-12-05T10:07:48;41.20;;;20.55;;
12214;SDS011;6170;42.206;24.142;2022-12-05T10:10:24;39.42;;;21.25;;
12214;SDS011;6170;42.206;24.142;2022-12-05T10:13:12;34.47;;;20.50;;
12214;SDS011;6170;42.206;24.142;2022-12-05T10:15:50;40.78;;;21.23;;
12214;SDS011;6170;42.206;24.142;2022-12-05T10:18:26;37.35;;;21.00;;
12214;SDS011;6170;42.206;24.142;2022-12-05T10:20:59;42.47;;;21.13;;
12214;SDS011;6170;42.206;24.142;2022-12-05T10:23:36;39.90;;;21.45;;
12214;SDS011;6170;42.206;24.142;2022-12-05T10:26:09;36.03;;;19.73;;
12214;SDS011;6170;42.206;24.142;2022-12-05T10:28:39;35.03;;;19.70;;
12214;SDS011;6170;42.206;24.142;2022-12-05T10:31:12;36.20;;;20.73;;
12214;SDS011;6170;42.206;24.142;2022-12-05T10:33:43;36.58;;;19.90;;
12214;SDS011;6170;42.206;24.142;2022-12-05T10:36:14;31.85;;;18.30;;
12214;SDS011;6170;42.206;24.142;2022-12-05T10:38:43;34.00;;;19.30;;
12214;SDS011;6170;42.206;24.142;2022-12-05T10:41:11;34.22;;;17.40;;
12214;SDS011;6170;42.206;24.142;2022-12-05T10:43:41;32.40;;;17.65;;
12214;SDS011;6170;42.206;24.142;2022-12-05T10:46:09;28.60;;;17.88;;
12214;SDS011;6170;42.206;24.142;2022-12-05T10:48:38;29.67;;;17.25;;
12214;SDS011;6170;42.206;24.142;2022-12-05T10:51:08;31.23;;;17.48;;
12214;SDS011;6170;42.206;24.142;2022-12-05T10:53:40;32.58;;;17.75;;
12214;SDS011;6170;42.206;24.142;2022-12-05T10:59:07;34.33;;;20.05;;
12214;SDS011;6170;42.206;24.142;2022-12-05T11:01:35;49.70;;;25.23;;
12214;SDS011;6170;42.206;24.142;2022-12-05T11:04:05;38.33;;;22.55;;
12214;SDS011;6170;42.206;24.142;2022-12-05T11:09:04;37.72;;;20.83;;
12214;SDS011;6170;42.206;24.142;2022-12-05T11:11:42;36.22;;;19.52;;
12214;SDS011;6170;42.206;24.142;2022-12-05T11:14:23;46.65;;;25.60;;
12214;SDS011;6170;42.206;24.142;2022-12-05T11:16:52;85.68;;;41.25;;
12214;SDS011;6170;42.206;24.142;2022-12-05T11:19:23;84.30;;;40.28;;
12214;SDS011;6170;42.206;24.142;2022-12-05T11:21:52;83.70;;;37.75;;
12214;SDS011;6170;42.206;24.142;2022-12-05T11:24:24;86.18;;;39.53;;
12214;SDS011;6170;42.206;24.142;2022-12-05T11:26:53;92.07;;;40.20;;
12214;SDS011;6170;42.206;24.142;2022-12-05T11:29:28;94.88;;;40.03;;
12214;SDS011;6170;42.206;24.142;2022-12-05T11:31:59;73.93;;;31.70;;
12214;SDS011;6170;42.206;24.142;2022-12-05T11:34:28;72.05;;;32.67;;
12214;SDS011;6170;42.206;24.142;2022-12-05T11:37:02;61.30;;;32.00;;
12214;SDS011;6170;42.206;24.142;2022-12-05T11:39:33;89.90;;;36.83;;
12214;SDS011;6170;42.206;24.142;2022-12-05T11:42:12;91.75;;;37.97;;
12214;SDS011;6170;42.206;24.142;2022-12-05T11:47:59;102.85;;;39.38;;
12214;SDS011;6170;42.206;24.142;2022-12-05T11:53:12;99.72;;;42.55;;
12214;SDS011;6170;42.206;24.142;2022-12-05T11:55:58;77.32;;;34.30;;
12214;SDS011;6170;42.206;24.142;2022-12-05T11:58:36;71.28;;;33.97;;
12214;SDS011;6170;42.206;24.142;2022-12-05T12:01:15;76.85;;;34.97;;
12214;SDS011;6170;42.206;24.142;2022-12-05T12:03:59;115.13;;;44.78;;
12214;SDS011;6170;42.206;24.142;2022-12-05T12:06:44;107.25;;;43.65;;
12214;SDS011;6170;42.206;24.142;2022-12-05T12:09:25;112.00;;;43.92;;
12214;SDS011;6170;42.206;24.142;2022-12-05T12:12:05;85.85;;;36.58;;
12214;SDS011;6170;42.206;24.142;2022-12-05T12:14:42;88.85;;;38.47;;
12214;SDS011;6170;42.206;24.142;2022-12-05T12:17:14;88.35;;;37.15;;
12214;SDS011;6170;42.206;24.142;2022-12-05T12:19:49;91.30;;;39.03;;
12214;SDS011;6170;42.206;24.142;2022-12-05T12:22:33;100.75;;;43.35;;
12214;SDS011;6170;42.206;24.142;2022-12-05T12:25:16;113.15;;;47.55;;
12214;SDS011;6170;42.206;24.142;2022-12-05T12:27:53;81.72;;;36.05;;
12214;SDS011;6170;42.206;24.142;2022-12-05T12:30:32;85.88;;;39.00;;
12214;SDS011;6170;42.206;24.142;2022-12-05T12:33:10;134.07;;;55.88;;
12214;SDS011;6170;42.206;24.142;2022-12-05T12:35:43;99.22;;;44.00;;
12214;SDS011;6170;42.206;24.142;2022-12-05T12:38:23;83.25;;;37.33;;
12214;SDS011;6170;42.206;24.142;2022-12-05T12:41:07;92.18;;;39.60;;
12214;SDS011;6170;42.206;24.142;2022-12-05T12:43:47;114.07;;;50.72;;
12214;SDS011;6170;42.206;24.142;2022-12-05T12:46:29;88.53;;;39.90;;
12214;SDS011;6170;42.206;24.142;2022-12-05T12:49:09;90.03;;;39.58;;
12214;SDS011;6170;42.206;24.142;2022-12-05T12:51:50;82.25;;;37.15;;
12214;SDS011;6170;42.206;24.142;2022-12-05T12:54:37;80.93;;;37.33;;
12214;SDS011;6170;42.206;24.142;2022-12-05T12:57:24;99.82;;;42.45;;
12214;SDS011;6170;42.206;24.142;2022-12-05T13:00:02;79.82;;;34.65;;
12214;SDS011;6170;42.206;24.142;2022-12-05T13:02:37;72.10;;;34.35;;
12214;SDS011;6170;42.206;24.142;2022-12-05T13:05:15;78.50;;;36.20;;
12214;SDS011;6170;42.206;24.142;2022-12-05T13:07:49;82.70;;;37.42;;
12214;SDS011;6170;42.206;24.142;2022-12-05T13:10:21;68.72;;;35.05;;
12214;SDS011;6170;42.206;24.142;2022-12-05T13:12:52;64.30;;;32.42;;
12214;SDS011;6170;42.206;24.142;2022-12-05T13:15:26;73.72;;;32.50;;
12214;SDS011;6170;42.206;24.142;2022-12-05T13:18:00;60.88;;;30.00;;
12214;SDS011;6170;42.206;24.142;2022-12-05T13:20:31;60.95;;;30.08;;
12214;SDS011;6170;42.206;24.142;2022-12-05T13:23:01;74.65;;;34.55;;
12214;SDS011;6170;42.206;24.142;2022-12-05T13:25:32;70.13;;;34.55;;
12214;SDS011;6170;42.206;24.142;2022-12-05T13:28:04;80.20;;;38.40;;
12214;SDS011;6170;42.206;24.142;2022-12-05T13:30:36;70.25;;;34.17;;
12214;SDS011;6170;42.206;24.142;2022-12-05T13:33:25;65.15;;;33.13;;
12214;SDS011;6170;42.206;24.142;2022-12-05T13:35:55;81.03;;;34.72;;
12214;SDS011;6170;42.206;24.142;2022-12-05T13:38:41;65.57;;;32.33;;
12214;SDS011;6170;42.206;24.142;2022-12-05T13:41:37;68.70;;;31.80;;
12214;SDS011;6170;42.206;24.142;2022-12-05T13:46:58;57.80;;;29.77;;
12214;SDS011;6170;42.206;24.142;2022-12-05T13:49:34;60.70;;;31.67;;
12214;SDS011;6170;42.206;24.142;2022-12-05T13:52:08;54.17;;;27.00;;
12214;SDS011;6170;42.206;24.142;2022-12-05T13:54:40;55.00;;;24.48;;
12214;SDS011;6170;42.206;24.142;2022-12-05T14:00:23;41.90;;;24.63;;
12214;SDS011;6170;42.206;24.142;2022-12-05T14:05:41;39.65;;;22.70;;
12214;SDS011;6170;42.206;24.142;2022-12-05T14:11:18;44.92;;;23.67;;
12214;SDS011;6170;42.206;24.142;2022-12-05T14:13:45;45.15;;;23.40;;
12214;SDS011;6170;42.206;24.142;2022-12-05T14:22:39;71.40;;;32.40;;
12214;SDS011;6170;42.206;24.142;2022-12-05T14:25:34;54.63;;;27.33;;
12214;SDS011;6170;42.206;24.142;2022-12-05T14:28:19;52.95;;;25.95;;
12214;SDS011;6170;42.206;24.142;2022-12-05T14:31:03;106.47;;;50.00;;
12214;SDS011;6170;42.206;24.142;2022-12-05T14:33:42;87.97;;;42.75;;
12214;SDS011;6170;42.206;24.142;2022-12-05T14:36:13;84.85;;;42.22;;
12214;SDS011;6170;42.206;24.142;2022-12-05T14:38:42;83.18;;;39.97;;
12214;SDS011;6170;42.206;24.142;2022-12-05T14:41:13;73.07;;;38.95;;
12214;SDS011;6170;42.206;24.142;2022-12-05T14:43:50;87.38;;;45.25;;
12214;SDS011;6170;42.206;24.142;2022-12-05T14:46:20;233.13;;;115.75;;
12214;SDS011;6170;42.206;24.142;2022-12-05T14:48:50;92.50;;;47.58;;
12214;SDS011;6170;42.206;24.142;2022-12-05T14:54:23;99.35;;;49.97;;
12214;SDS011;6170;42.206;24.142;2022-12-05T14:56:52;100.35;;;53.78;;
12214;SDS011;6170;42.206;24.142;2022-12-05T14:59:29;108.22;;;56.92;;
12214;SDS011;6170;42.206;24.142;2022-12-05T15:02:02;99.38;;;53.42;;
12214;SDS011;6170;42.206;24.142;2022-12-05T15:04:31;109.05;;;60.92;;
12214;SDS011;6170;42.206;24.142;2022-12-05T15:07:07;110.55;;;59.38;;
12214;SDS011;6170;42.206;24.142;2022-12-05T15:09:42;108.25;;;57.60;;
12214;SDS011;6170;42.206;24.142;2022-12-05T15:12:21;105.90;;;58.03;;
12214;SDS011;6170;42.206;24.142;2022-12-05T15:14:53;125.70;;;61.88;;
12214;SDS011;6170;42.206;24.142;2022-12-05T15:17:28;123.93;;;62.22;;
12214;SDS011;6170;42.206;24.142;2022-12-05T15:20:03;118.40;;;57.90;;
12214;SDS011;6170;42.206;24.142;2022-12-05T15:22:35;124.55;;;61.80;;
12214;SDS011;6170;42.206;24.142;2022-12-05T15:25:13;113.95;;;57.00;;
12214;SDS011;6170;42.206;24.142;2022-12-05T15:27:53;117.43;;;55.88;;
12214;SDS011;6170;42.206;24.142;2022-12-05T15:30:22;116.35;;;56.45;;